Time;durP1;ratioP1;P1;durP2;ratioP2;P2;SDS_P1;SDS_P2;PMS_P1;PMS_P2;Temp;Humidity;BMP_temperature;BMP_pressure;BME280_temperature;BME280_humidity;BME280_pressure;Samples;Min_cycle;Max_cycle;Signal;HPM_P1;HPM_P2
2022/04/13 00:01:24;;;;;;;;;;;;;;;10.32;36.84;97892.41;12900738;23;19927;-86
2022/04/13 00:06:46;;;;;;;;;;;;;;;10.27;37.25;97890.66;12901505;23;19919;-83
2022/04/13 00:12:08;;;;;;;;;;;;;;;10.14;37.41;97894.63;12879769;23;19911;-86
2022/04/13 00:17:30;;;;;;;;;;;;;;;10.05;37.88;97909.31;12901425;23;19920;-81
2022/04/13 00:22:52;;;;;;;;;;;;;;;9.96;38.20;97898.91;12901513;23;19948;-86
2022/04/13 00:28:16;;;;;;;;;;;;;;;9.89;38.11;97897.00;12922541;23;19939;-85
2022/04/13 00:33:57;;;;;;;;;;;;;;;9.82;38.41;97904.16;12805480;23;19920;-85
2022/04/13 00:39:19;;;;;;;;;;;;;;;9.77;38.26;97908.00;12818743;23;19929;-86
2022/04/13 00:44:41;;;;;;;;;;;;;;;9.67;38.93;97913.56;12839122;23;19920;-80
2022/04/13 00:50:03;;;;;;;;;;;;;;;9.63;38.69;97909.72;12818012;23;19904;-84
2022/04/13 00:55:40;;;;;;;;;;;;;;;9.59;39.23;97912.22;12761256;23;19913;-83
2022/04/13 01:01:02;;;;;;;;;;;;;;;9.54;39.05;97905.59;12818646;23;19904;-84
2022/04/13 01:06:24;;;;;;;;;;;;;;;9.52;39.02;97918.66;12777252;23;19905;-85
2022/04/13 01:11:45;;;;;;;;;;;;;;;9.46;39.61;97913.38;12776551;23;19928;-82
2022/04/13 01:17:07;;;;;;;;;;;;;;;9.30;39.32;97912.16;12756790;23;19905;-85
2022/04/13 01:22:30;;;;;;;;;;;;;;;9.22;39.75;97911.56;12797341;23;19956;-84
2022/04/13 01:27:51;;;;;;;;;;;;;;;9.15;40.23;97911.09;12776996;23;19912;-83
2022/04/13 01:33:15;;;;;;;;;;;;;;;9.17;40.33;97914.06;12756460;23;19933;-86
2022/04/13 01:38:36;;;;;;;;;;;;;;;9.12;40.13;97914.31;12797278;23;19905;-83
2022/04/13 01:43:58;;;;;;;;;;;;;;;9.09;41.64;97915.50;12775818;23;19952;-85
2022/04/13 01:49:19;;;;;;;;;;;;;;;9.04;41.06;97927.63;12752087;23;19928;-86
2022/04/13 01:54:41;;;;;;;;;;;;;;;8.99;41.07;97931.44;12755825;23;19909;-81
2022/04/13 02:00:03;;;;;;;;;;;;;;;8.92;41.03;97924.66;12771368;23;19904;-80
2022/04/13 02:05:25;;;;;;;;;;;;;;;8.81;42.00;97930.75;12766514;23;19925;-82
2022/04/13 02:10:47;;;;;;;;;;;;;;;8.66;41.63;97923.34;12753759;23;19947;-78
2022/04/13 02:16:08;;;;;;;;;;;;;;;8.65;41.50;97930.22;12754055;23;19916;-81
2022/04/13 02:21:30;;;;;;;;;;;;;;;8.64;41.72;97939.88;12729479;23;19928;-80
2022/04/13 02:26:52;;;;;;;;;;;;;;;8.64;42.42;97936.38;12795426;23;19916;-86
2022/04/13 02:32:14;;;;;;;;;;;;;;;8.56;42.01;97933.69;12794335;23;19916;-85
2022/04/13 02:37:34;;;;;;;;;;;;;;;8.49;42.72;97935.28;12837038;23;19924;-82
2022/04/13 02:42:55;;;;;;;;;;;;;;;8.46;42.49;97935.69;12837041;23;19911;-86
2022/04/13 02:48:17;;;;;;;;;;;;;;;8.39;42.86;97945.59;12784758;23;19953;-84
2022/04/13 02:53:39;;;;;;;;;;;;;;;8.33;42.82;97939.53;12816888;23;19924;-84
2022/04/13 02:59:00;;;;;;;;;;;;;;;8.28;43.40;97944.03;12837319;23;19920;-85
2022/04/13 03:10:26;;;;;;;;;;;;;;;8.21;43.40;97941.34;12755837;23;19905;-84
2022/04/13 03:15:47;;;;;;;;;;;;;;;8.18;43.37;97934.88;12856880;23;19923;-83
2022/04/13 03:21:09;;;;;;;;;;;;;;;8.12;43.05;97926.06;12898800;23;20047;-83
2022/04/13 03:26:29;;;;;;;;;;;;;;;8.08;43.79;97920.16;12919055;23;19931;-85
2022/04/13 03:31:50;;;;;;;;;;;;;;;8.03;43.73;97923.94;12877406;23;19904;-81
2022/04/13 03:37:11;;;;;;;;;;;;;;;7.95;43.79;97932.38;12898145;23;19920;-83
2022/04/13 03:42:39;;;;;;;;;;;;;;;7.93;43.56;97931.47;12898003;23;19920;-85
2022/04/13 03:48:00;;;;;;;;;;;;;;;7.95;44.25;97934.41;12876717;23;19920;-77
2022/04/13 03:53:21;;;;;;;;;;;;;;;7.90;43.83;97932.59;12896227;23;19904;-81
2022/04/13 03:58:42;;;;;;;;;;;;;;;7.86;43.94;97943.41;12875345;23;19904;-78
2022/04/13 04:04:05;;;;;;;;;;;;;;;7.79;44.55;97942.16;12896128;23;19924;-82
2022/04/13 04:09:26;;;;;;;;;;;;;;;7.80;44.33;97951.97;12899345;23;19920;-82
2022/04/13 04:14:47;;;;;;;;;;;;;;;7.74;44.79;97957.78;12899456;23;19920;-84
2022/04/13 04:20:08;;;;;;;;;;;;;;;7.78;44.73;97949.03;12899321;23;19939;-79
2022/04/13 04:25:29;;;;;;;;;;;;;;;7.81;45.39;97959.00;12859605;23;19920;-80
2022/04/13 04:30:50;;;;;;;;;;;;;;;7.90;45.15;97960.41;12755153;23;19905;-82
2022/04/13 04:36:13;;;;;;;;;;;;;;;8.07;44.93;97960.41;12755149;23;19904;-84
2022/04/13 04:41:34;;;;;;;;;;;;;;;8.21;44.40;97969.16;12797659;23;19921;-84
2022/04/13 04:46:55;;;;;;;;;;;;;;;8.35;44.43;97970.31;12775778;23;19932;-81
2022/04/13 04:52:16;;;;;;;;;;;;;;;8.69;44.42;97985.47;12776708;23;19924;-82
2022/04/13 04:57:37;;;;;;;;;;;;;;;8.95;44.26;97979.16;12786709;23;19948;-81
2022/04/13 05:02:58;;;;;;;;;;;;;;;9.28;44.33;97987.22;12855774;23;19904;-83
2022/04/13 05:08:21;;;;;;;;;;;;;;;9.70;43.50;97992.47;12818879;23;19916;-83
2022/04/13 05:13:45;;;;;;;;;;;;;;;10.14;43.20;97994.31;12838522;23;19961;-77
2022/04/13 05:19:07;;;;;;;;;;;;;;;10.77;42.71;97998.84;12838519;23;19920;-85
2022/04/13 05:24:28;;;;;;;;;;;;;;;11.46;42.21;97995.22;12835895;23;19915;-86
2022/04/13 05:29:49;;;;;;;;;;;;;;;12.63;41.69;98001.50;12835785;23;19952;-85
2022/04/13 05:41:11;;;;;;;;;;;;;;;22.31;29.84;98008.78;12741085;23;19920;-87
2022/04/13 05:46:35;;;;;;;;;;;;;;;26.45;25.78;98003.19;12719078;23;19928;-86
2022/04/13 05:51:56;;;;;;;;;;;;;;;28.68;18.67;98008.53;12718184;23;20255;-87
2022/04/13 05:57:17;;;;;;;;;;;;;;;30.45;19.94;98016.56;12759707;23;19928;-86
2022/04/13 06:02:38;;;;;;;;;;;;;;;31.83;15.42;98018.13;12715230;23;19924;-87
2022/04/13 06:07:58;;;;;;;;;;;;;;;33.51;14.45;98022.72;12717739;23;19951;-87
2022/04/13 06:13:19;;;;;;;;;;;;;;;35.45;11.31;98030.53;12759478;23;20243;-87
2022/04/13 06:18:40;;;;;;;;;;;;;;;36.02;10.08;98019.50;12738038;23;20400;-84
2022/04/13 06:24:01;;;;;;;;;;;;;;;37.01;10.05;98015.63;12716567;23;20307;-86
2022/04/13 06:29:21;;;;;;;;;;;;;;;35.73;10.08;98016.69;12714424;23;19921;-87
2022/04/13 06:34:42;;;;;;;;;;;;;;;35.77;9.46;98019.47;12696569;23;20320;-88
2022/04/13 06:40:03;;;;;;;;;;;;;;;37.72;8.66;98027.66;12700545;23;19956;-89
2022/04/13 06:45:24;;;;;;;;;;;;;;;39.15;7.82;98034.41;12715249;23;19920;-89
2022/04/13 06:50:45;;;;;;;;;;;;;;;39.81;6.75;98026.41;12696899;23;19927;-89
2022/04/13 06:56:06;;;;;;;;;;;;;;;40.85;6.27;98030.28;12696155;23;19928;-89
2022/04/13 07:01:26;;;;;;;;;;;;;;;41.94;5.48;98029.03;12716507;23;19944;-89
2022/04/13 07:06:48;;;;;;;;;;;;;;;43.30;5.15;98027.09;12696401;23;19924;-89
2022/04/13 07:12:09;;;;;;;;;;;;;;;43.65;4.44;98028.66;12716165;23;19920;-88
2022/04/13 07:17:30;;;;;;;;;;;;;;;45.24;3.93;98033.06;12696721;23;20011;-88
2022/04/13 07:22:52;;;;;;;;;;;;;;;45.45;3.95;98029.44;12695956;23;19921;-89
2022/04/13 07:28:16;;;;;;;;;;;;;;;46.66;3.74;98027.44;12696304;23;20248;-89
2022/04/13 07:33:36;;;;;;;;;;;;;;;46.69;3.70;98038.25;12697282;23;20313;-90
2022/04/13 07:38:57;;;;;;;;;;;;;;;45.22;3.53;98035.47;12705668;23;20381;-88
2022/04/13 07:44:18;;;;;;;;;;;;;;;45.40;3.65;98025.38;12719620;23;20336;-88
2022/04/13 07:49:41;;;;;;;;;;;;;;;45.22;3.55;98020.75;12720896;23;19924;-86
2022/04/13 07:55:02;;;;;;;;;;;;;;;45.13;3.94;98034.63;12696909;23;19920;-88
2022/04/13 08:00:23;;;;;;;;;;;;;;;44.38;4.46;98034.38;12696872;23;19929;-88
2022/04/13 08:05:44;;;;;;;;;;;;;;;44.30;4.12;98032.69;12717574;23;20348;-87
2022/04/13 08:11:05;;;;;;;;;;;;;;;44.93;4.28;98031.50;12696800;23;19968;-88
2022/04/13 08:16:26;;;;;;;;;;;;;;;46.83;3.39;98024.00;12677069;23;19921;-89
2022/04/13 08:21:47;;;;;;;;;;;;;;;47.83;2.84;98020.63;12676984;23;19984;-88
2022/04/13 08:27:10;;;;;;;;;;;;;;;47.74;2.81;98016.94;12697131;23;19925;-89
2022/04/13 08:32:30;;;;;;;;;;;;;;;46.05;3.47;98017.84;12697359;23;19920;-88
2022/04/13 08:37:51;;;;;;;;;;;;;;;45.57;3.48;98019.75;12696937;23;19920;-89
2022/04/13 08:43:12;;;;;;;;;;;;;;;46.75;3.49;98028.94;12719697;23;19921;-89
2022/04/13 08:48:35;;;;;;;;;;;;;;;44.69;4.12;98030.19;12700024;23;19920;-87
2022/04/13 08:54:07;;;;;;;;;;;;;;;46.52;3.50;98026.25;12718557;23;19925;-89
2022/04/13 08:59:44;;;;;;;;;;;;;;;46.67;3.59;98032.50;12701400;23;19920;-89
2022/04/13 09:05:14;;;;;;;;;;;;;;;46.83;3.59;98033.56;12701651;23;19921;-89
2022/04/13 09:10:36;;;;;;;;;;;;;;;46.79;3.54;98027.91;12699586;23;19920;-89
2022/04/13 09:15:57;;;;;;;;;;;;;;;45.70;4.15;98036.59;12698663;23;20004;-90
2022/04/13 09:27:21;;;;;;;;;;;;;;;47.92;3.32;98022.97;12760331;23;19925;-87
2022/04/13 09:32:43;;;;;;;;;;;;;;;48.85;2.74;98027.16;12718241;23;19920;-88
2022/04/13 09:38:20;;;;;;;;;;;;;;;49.92;2.90;98028.34;12698990;23;19944;-89
2022/04/13 09:43:41;;;;;;;;;;;;;;;50.20;2.30;98028.09;12697559;23;19921;-89
2022/04/13 09:49:14;;;;;;;;;;;;;;;48.53;2.95;98020.97;12701293;23;19921;-88
2022/04/13 09:54:36;;;;;;;;;;;;;;;49.58;2.88;98017.94;12677873;23;19920;-87
2022/04/13 10:00:14;;;;;;;;;;;;;;;50.00;2.28;98018.72;12697352;23;19921;-87
2022/04/13 10:05:35;;;;;;;;;;;;;;;48.30;3.31;98028.72;12532485;23;19977;-89
2022/04/13 10:10:57;;;;;;;;;;;;;;;47.11;3.70;98012.28;12512791;23;19921;-90
2022/04/13 10:16:30;;;;;;;;;;;;;;;;;;;;;
2022/04/13 10:22:04;;;;;;;;;;;;;;;49.06;2.88;98002.44;12552570;23;19921;-86
2022/04/13 10:27:25;;;;;;;;;;;;;;;49.46;3.02;98001.22;12587724;23;19921;-84
2022/04/13 10:33:02;;;;;;;;;;;;;;;50.05;2.57;97996.03;12677286;23;19951;-86
2022/04/13 10:38:24;;;;;;;;;;;;;;;49.74;2.81;97997.34;12697013;23;20281;-84
2022/04/13 10:43:49;;;;;;;;;;;;;;;48.71;3.24;97989.84;12696936;23;20217;-86
2022/04/13 10:49:11;;;;;;;;;;;;;;;46.85;4.06;97982.50;12717659;23;20340;-85
2022/04/13 10:54:33;;;;;;;;;;;;;;;45.40;4.23;97995.94;12697223;23;19920;-84
2022/04/13 10:59:54;;;;;;;;;;;;;;;41.70;5.68;97981.97;12717488;23;20038;-86
2022/04/13 11:05:15;;;;;;;;;;;;;;;37.53;8.86;97977.41;12696997;23;19928;-86
2022/04/13 11:10:36;;;;;;;;;;;;;;;34.13;10.48;97984.50;12716569;23;19927;-85
2022/04/13 11:15:57;;;;;;;;;;;;;;;32.13;11.99;97982.34;12698311;23;19921;-85
2022/04/13 11:21:18;;;;;;;;;;;;;;;31.40;12.80;97977.53;12700905;23;20324;-85
2022/04/13 11:26:41;;;;;;;;;;;;;;;29.97;14.63;97977.28;12700716;23;19944;-84
2022/04/13 11:32:02;;;;;;;;;;;;;;;30.00;14.78;97978.69;12721181;23;19926;-82
2022/04/13 11:37:24;;;;;;;;;;;;;;;30.15;14.95;97971.44;12738002;23;20231;-82
2022/04/13 11:42:48;;;;;;;;;;;;;;;30.24;14.56;97969.22;12740551;23;19990;-83
2022/04/13 11:48:10;;;;;;;;;;;;;;;29.50;15.31;97963.13;12699801;23;19928;-82
2022/04/13 11:53:31;;;;;;;;;;;;;;;28.36;16.78;97969.03;12719702;23;19988;-83
2022/04/13 11:58:52;;;;;;;;;;;;;;;27.56;17.06;97954.47;12740218;23;19921;-83
2022/04/13 12:04:14;;;;;;;;;;;;;;;27.56;17.34;97951.63;12731642;23;19921;-88
2022/04/13 12:09:35;;;;;;;;;;;;;;;27.70;16.92;97939.50;12699228;23;20324;-88
2022/04/13 12:14:56;;;;;;;;;;;;;;;27.22;17.33;97940.03;12740077;23;19988;-86
2022/04/13 12:20:26;;;;;;;;;;;;;;;26.35;18.45;97937.28;12699138;23;19925;-86
2022/04/13 12:25:48;;;;;;;;;;;;;;;25.78;19.51;97937.47;12697793;23;19920;-85
2022/04/13 12:31:09;;;;;;;;;;;;;;;25.89;19.63;97924.69;12739782;23;20283;-85
2022/04/13 12:36:30;;;;;;;;;;;;;;;26.10;19.27;97913.44;12698104;23;20003;-86
2022/04/13 12:41:51;;;;;;;;;;;;;;;25.69;20.23;97916.63;12699099;23;19921;-85
2022/04/13 12:47:15;;;;;;;;;;;;;;;25.33;20.28;97910.50;12738984;23;19951;-85
2022/04/13 12:52:37;;;;;;;;;;;;;;;25.62;20.18;97908.66;12718932;23;19987;-84
2022/04/13 12:57:58;;;;;;;;;;;;;;;25.50;20.48;97899.97;12719325;23;19921;-85
2022/04/13 13:03:20;;;;;;;;;;;;;;;25.48;20.24;97905.66;12693527;23;19921;-86
2022/04/13 13:08:50;;;;;;;;;;;;;;;25.68;20.14;97891.59;12719033;23;20320;-85
2022/04/13 13:14:22;;;;;;;;;;;;;;;25.83;20.00;97893.19;12719773;23;19967;-85
2022/04/13 13:20:16;;;;;;;;;;;;;;;25.93;20.13;97899.00;12739806;23;19921;-85
2022/04/13 13:25:40;;;;;;;;;;;;;;;25.66;19.98;97883.69;12698135;23;19975;-85
2022/04/13 13:31:02;;;;;;;;;;;;;;;25.84;19.97;97886.03;12718660;23;19920;-86
2022/04/13 13:36:22;;;;;;;;;;;;;;;25.46;20.39;97882.75;12718104;23;20003;-85
2022/04/13 13:42:00;;;;;;;;;;;;;;;25.14;21.02;97880.97;12699165;23;19927;-85
2022/04/13 13:47:22;;;;;;;;;;;;;;;25.13;21.06;97890.25;12718486;23;19921;-84
2022/04/13 13:52:43;;;;;;;;;;;;;;;25.16;20.86;97871.72;12738032;23;19921;-87
2022/04/13 13:58:04;;;;;;;;;;;;;;;25.36;20.76;97871.94;12718120;23;19927;-87
2022/04/13 14:03:25;;;;;;;;;;;;;;;25.51;20.50;97858.53;12718134;23;20391;-86
2022/04/13 14:08:46;;;;;;;;;;;;;;;25.21;20.85;97862.50;12737746;23;19927;-86
2022/04/13 14:14:06;;;;;;;;;;;;;;;24.65;21.17;97857.50;12697524;23;19927;-86
2022/04/13 14:19:33;;;;;;;;;;;;;;;24.72;21.23;97859.03;12677113;23;20324;-90
2022/04/13 14:24:53;;;;;;;;;;;;;;;24.82;21.07;97862.00;12698791;23;19927;-87
2022/04/13 14:30:18;;;;;;;;;;;;;;;24.72;20.94;97844.75;12716689;23;19920;-87
2022/04/13 14:35:38;;;;;;;;;;;;;;;24.49;21.52;97848.69;12697874;23;19980;-87
2022/04/13 14:40:59;;;;;;;;;;;;;;;24.30;21.49;97852.66;12701026;23;20044;-87
2022/04/13 14:46:20;;;;;;;;;;;;;;;24.10;21.58;97853.06;12717325;23;19932;-87
2022/04/13 14:51:41;;;;;;;;;;;;;;;24.17;21.66;97858.19;12717173;23;19944;-86
2022/04/13 14:57:02;;;;;;;;;;;;;;;23.72;22.51;97864.56;12696870;23;19975;-88
2022/04/13 15:02:24;;;;;;;;;;;;;;;23.49;22.64;97860.56;12716108;23;19947;-85
2022/04/13 15:07:45;;;;;;;;;;;;;;;23.58;22.50;97867.84;12717139;23;19928;-88
2022/04/13 15:13:06;;;;;;;;;;;;;;;23.48;22.45;97862.69;12717064;23;20275;-86
2022/04/13 15:18:26;;;;;;;;;;;;;;;23.58;22.78;97862.88;12717077;23;19983;-87
2022/04/13 15:23:47;;;;;;;;;;;;;;;23.88;22.61;97857.00;12716537;23;20041;-87
2022/04/13 15:29:08;;;;;;;;;;;;;;;23.77;22.58;97869.66;12695623;23;19922;-86
2022/04/13 15:34:29;;;;;;;;;;;;;;;23.69;22.75;97849.56;12716896;23;19944;-85
2022/04/13 15:39:49;;;;;;;;;;;;;;;23.81;22.65;97858.31;12696515;23;20312;-85
2022/04/13 15:45:11;;;;;;;;;;;;;;;23.78;22.82;97842.59;12736699;23;19925;-85
2022/04/13 15:50:31;;;;;;;;;;;;;;;23.58;22.91;97854.31;12695931;23;19921;-86
2022/04/13 15:55:52;;;;;;;;;;;;;;;23.28;22.97;97851.63;12737007;23;19928;-86
2022/04/13 16:01:13;;;;;;;;;;;;;;;23.26;23.27;97845.16;12696907;23;19921;-86
2022/04/13 16:06:36;;;;;;;;;;;;;;;23.29;23.43;97850.22;12703076;23;19920;-84
2022/04/13 16:11:56;;;;;;;;;;;;;;;23.04;23.32;97851.16;12699993;23;19928;-87
2022/04/13 16:17:17;;;;;;;;;;;;;;;22.78;23.80;97848.47;12740048;23;19921;-87
2022/04/13 16:22:38;;;;;;;;;;;;;;;22.51;24.30;97844.34;12739844;23;20218;-85
2022/04/13 16:27:59;;;;;;;;;;;;;;;22.23;23.93;97850.09;12699667;23;19921;-87
2022/04/13 16:33:19;;;;;;;;;;;;;;;22.03;24.25;97849.59;12740461;23;19944;-91
2022/04/13 16:38:43;;;;;;;;;;;;;;;21.88;24.17;97851.34;12693019;23;19991;-83
2022/04/13 16:44:06;;;;;;;;;;;;;;;21.67;24.29;97850.13;12740532;23;19927;-83
2022/04/13 16:49:27;;;;;;;;;;;;;;;21.47;24.63;97847.47;12699227;23;19924;-83
2022/04/13 16:54:48;;;;;;;;;;;;;;;21.32;24.78;97849.22;12719512;23;20291;-83
2022/04/13 17:00:09;;;;;;;;;;;;;;;21.18;25.12;97863.00;12699083;23;20227;-83
2022/04/13 17:05:31;;;;;;;;;;;;;;;21.01;26.16;97869.59;12705377;23;19976;-83
2022/04/13 17:10:52;;;;;;;;;;;;;;;20.78;26.11;97860.47;12718091;23;19927;-85
2022/04/13 17:16:12;;;;;;;;;;;;;;;20.60;26.78;97867.69;12718736;23;19921;-82
2022/04/13 17:21:36;;;;;;;;;;;;;;;20.45;26.89;97869.38;12698310;23;19920;-90
2022/04/13 17:26:56;;;;;;;;;;;;;;;20.32;26.80;97861.84;12738996;23;20232;-89
2022/04/13 17:32:17;;;;;;;;;;;;;;;20.23;26.72;97870.09;12697646;23;19921;-88
2022/04/13 17:37:38;;;;;;;;;;;;;;;20.05;26.99;97866.69;12713378;23;19928;-88
2022/04/13 17:42:59;;;;;;;;;;;;;;;19.86;27.41;97876.69;12738520;23;20256;-87
2022/04/13 17:48:20;;;;;;;;;;;;;;;19.73;27.81;97881.22;12697274;23;20339;-88
2022/04/13 17:53:42;;;;;;;;;;;;;;;19.63;28.53;97883.72;12738772;23;19996;-87
2022/04/13 17:59:04;;;;;;;;;;;;;;;19.57;29.32;97896.94;12717708;23;19927;-87
2022/04/13 18:04:28;;;;;;;;;;;;;;;19.44;29.33;97890.84;12698345;23;19921;-88
2022/04/13 18:09:51;;;;;;;;;;;;;;;19.28;29.85;97900.84;12677440;23;19920;-89
2022/04/13 18:15:12;;;;;;;;;;;;;;;19.10;30.40;97909.38;12717323;23;19921;-87
2022/04/13 18:20:35;;;;;;;;;;;;;;;18.94;30.66;97915.19;12698508;23;19920;-86
2022/04/13 18:25:56;;;;;;;;;;;;;;;18.79;30.49;97919.56;12738062;23;19921;-87
2022/04/13 18:31:19;;;;;;;;;;;;;;;18.70;30.97;97925.56;12696965;23;19920;-84
2022/04/13 18:36:40;;;;;;;;;;;;;;;18.60;31.13;97929.44;12696546;23;19921;-82
2022/04/13 18:42:01;;;;;;;;;;;;;;;18.54;31.47;97929.22;12717376;23;19927;-85
2022/04/13 18:47:22;;;;;;;;;;;;;;;18.45;31.58;97935.91;12696628;23;19921;-84
2022/04/13 18:52:44;;;;;;;;;;;;;;;18.36;32.27;97941.88;12696976;23;19921;-85
2022/04/13 18:58:05;;;;;;;;;;;;;;;18.20;31.99;97933.47;12758859;23;19921;-85
2022/04/13 19:03:28;;;;;;;;;;;;;;;18.05;32.20;97945.53;12696464;23;20124;-86
2022/04/13 19:08:52;;;;;;;;;;;;;;;17.88;33.02;97947.00;12716518;23;19921;-84
2022/04/13 19:14:13;;;;;;;;;;;;;;;17.74;32.52;97941.44;12738232;23;19921;-83
2022/04/13 19:19:34;;;;;;;;;;;;;;;17.67;33.49;97951.75;12716796;23;19921;-87
2022/04/13 19:24:54;;;;;;;;;;;;;;;17.60;33.35;97946.47;12716503;23;20236;-86
2022/04/13 19:30:15;;;;;;;;;;;;;;;17.49;33.34;97944.59;12716090;23;19924;-85
2022/04/13 19:35:37;;;;;;;;;;;;;;;17.35;33.40;97947.50;12677276;23;20382;-85
2022/04/13 19:40:58;;;;;;;;;;;;;;;17.28;33.50;97945.78;12704960;23;19921;-87
2022/04/13 19:46:18;;;;;;;;;;;;;;;17.21;34.07;97947.59;12680426;23;19920;-87
2022/04/13 19:51:39;;;;;;;;;;;;;;;17.21;33.76;97952.53;12720354;23;19928;-86
2022/04/13 19:57:02;;;;;;;;;;;;;;;17.12;33.73;97951.44;12699873;23;20383;-85
2022/04/13 20:02:39;;;;;;;;;;;;;;;16.97;34.13;97950.03;12722907;23;19951;-85
2022/04/13 20:08:01;;;;;;;;;;;;;;;16.85;34.23;97950.22;12699797;23;19977;-83
2022/04/13 20:13:42;;;;;;;;;;;;;;;16.74;34.27;97948.28;12769887;23;20323;-83
2022/04/13 20:19:15;;;;;;;;;;;;;;;16.70;34.37;97962.22;12711552;23;19927;-83
2022/04/13 20:24:46;;;;;;;;;;;;;;;16.67;34.41;97968.34;12665118;23;19921;-83
2022/04/13 20:30:08;;;;;;;;;;;;;;;16.54;34.56;97973.41;12642815;23;19976;-83
2022/04/13 20:35:30;;;;;;;;;;;;;;;16.53;34.64;97977.59;12643345;23;20359;-83
2022/04/13 20:40:51;;;;;;;;;;;;;;;16.55;34.79;97974.13;12642599;23;19924;-83
2022/04/13 20:46:12;;;;;;;;;;;;;;;16.43;34.68;97963.00;12666517;23;19921;-82
2022/04/13 20:51:44;;;;;;;;;;;;;;;16.35;34.77;97959.81;12689419;23;19945;-81
2022/04/13 20:57:15;;;;;;;;;;;;;;;16.31;34.89;97963.16;12690456;23;19920;-82
2022/04/13 21:02:46;;;;;;;;;;;;;;;16.27;34.76;97970.66;12785577;23;19943;-83
2022/04/13 21:08:07;;;;;;;;;;;;;;;16.18;34.72;97966.72;12778303;23;19927;-82
2022/04/13 21:13:29;;;;;;;;;;;;;;;16.14;34.96;97963.00;12795050;23;19940;-82
2022/04/13 21:19:03;;;;;;;;;;;;;;;16.11;34.68;97964.97;12647531;23;19909;-80
2022/04/13 21:24:37;;;;;;;;;;;;;;;16.04;34.79;97963.22;12736754;23;19927;-79
2022/04/13 21:30:10;;;;;;;;;;;;;;;15.97;34.82;97955.81;12760465;23;20334;-80
2022/04/13 21:35:44;;;;;;;;;;;;;;;15.85;34.91;97964.41;12753139;23;19948;-78
2022/04/13 21:41:18;;;;;;;;;;;;;;;15.81;35.21;97969.81;12715997;23;19905;-81
